sensor_id;sensor_type;location;lat;lon;timestamp;pressure;altitude;pressure_sealevel;temperature;humidity
11190;BME280;5651;50.926;4.718;2022-12-18T00:01:23;102628.19;;;-7.59;100.00
11190;BME280;5651;50.926;4.718;2022-12-18T00:03:50;102636.19;;;-7.64;100.00
11190;BME280;5651;50.926;4.718;2022-12-18T00:06:21;102631.59;;;-7.68;99.94
11190;BME280;5651;50.926;4.718;2022-12-18T00:08:50;102627.69;;;-7.73;99.71
11190;BME280;5651;50.926;4.718;2022-12-18T00:11:19;102634.28;;;-7.75;99.71
11190;BME280;5651;50.926;4.718;2022-12-18T00:13:52;102633.63;;;-7.81;99.42
11190;BME280;5651;50.926;4.718;2022-12-18T00:16:21;102636.94;;;-7.82;99.25
11190;BME280;5651;50.926;4.718;2022-12-18T00:18:54;102624.56;;;-7.88;99.22
11190;BME280;5651;50.926;4.718;2022-12-18T00:21:22;102623.50;;;-7.90;99.51
11190;BME280;5651;50.926;4.718;2022-12-18T00:23:49;102620.53;;;-7.94;99.42
11190;BME280;5651;50.926;4.718;2022-12-18T00:26:25;102624.38;;;-7.98;99.42
11190;BME280;5651;50.926;4.718;2022-12-18T00:28:54;102623.19;;;-8.02;99.49
11190;BME280;5651;50.926;4.718;2022-12-18T00:31:24;102620.19;;;-8.06;99.34
11190;BME280;5651;50.926;4.718;2022-12-18T00:33:52;102624.06;;;-8.10;99.17
11190;BME280;5651;50.926;4.718;2022-12-18T00:36:20;102616.19;;;-8.13;99.13
11190;BME280;5651;50.926;4.718;2022-12-18T00:38:50;102612.47;;;-8.17;99.08
11190;BME280;5651;50.926;4.718;2022-12-18T00:41:21;102597.84;;;-8.19;99.42
11190;BME280;5651;50.926;4.718;2022-12-18T00:44:10;102594.28;;;-8.21;99.61
11190;BME280;5651;50.926;4.718;2022-12-18T00:46:40;102594.28;;;-8.21;99.37
11190;BME280;5651;50.926;4.718;2022-12-18T00:49:11;102593.38;;;-8.22;98.77
11190;BME280;5651;50.926;4.718;2022-12-18T00:51:39;102590.72;;;-8.23;98.70
11190;BME280;5651;50.926;4.718;2022-12-18T00:54:08;102583.13;;;-8.23;98.97
11190;BME280;5651;50.926;4.718;2022-12-18T00:56:35;102578.66;;;-8.26;98.81
11190;BME280;5651;50.926;4.718;2022-12-18T00:59:04;102587.84;;;-8.27;98.78
11190;BME280;5651;50.926;4.718;2022-12-18T01:01:32;102585.94;;;-8.29;98.94
11190;BME280;5651;50.926;4.718;2022-12-18T01:04:02;102585.94;;;-8.29;98.35
11190;BME280;5651;50.926;4.718;2022-12-18T01:06:30;102582.94;;;-8.34;98.64
11190;BME280;5651;50.926;4.718;2022-12-18T01:08:56;102590.84;;;-8.31;98.70
11190;BME280;5651;50.926;4.718;2022-12-18T01:11:25;102594.84;;;-8.33;98.56
11190;BME280;5651;50.926;4.718;2022-12-18T01:13:52;102593.03;;;-8.34;99.16
11190;BME280;5651;50.926;4.718;2022-12-18T01:16:19;102586.22;;;-8.35;98.83
11190;BME280;5651;50.926;4.718;2022-12-18T01:18:51;102585.19;;;-8.37;98.70
11190;BME280;5651;50.926;4.718;2022-12-18T01:21:17;102583.97;;;-8.40;98.43
11190;BME280;5651;50.926;4.718;2022-12-18T01:23:46;102594.69;;;-8.43;98.41
11190;BME280;5651;50.926;4.718;2022-12-18T01:26:16;102596.16;;;-8.45;98.77
11190;BME280;5651;50.926;4.718;2022-12-18T01:28:47;102602.56;;;-8.49;98.68
11190;BME280;5651;50.926;4.718;2022-12-18T01:31:18;102598.81;;;-8.52;98.98
11190;BME280;5651;50.926;4.718;2022-12-18T01:33:50;102592.56;;;-8.56;98.70
11190;BME280;5651;50.926;4.718;2022-12-18T01:36:24;102584.53;;;-8.61;98.64
11190;BME280;5651;50.926;4.718;2022-12-18T01:38:53;102582.59;;;-8.63;98.53
11190;BME280;5651;50.926;4.718;2022-12-18T01:41:27;102582.44;;;-8.65;98.35
11190;BME280;5651;50.926;4.718;2022-12-18T01:50:23;102586.13;;;-8.70;98.21
11190;BME280;5651;50.926;4.718;2022-12-18T01:52:50;102586.13;;;-8.70;98.17
11190;BME280;5651;50.926;4.718;2022-12-18T01:55:19;102587.03;;;-8.69;97.83
11190;BME280;5651;50.926;4.718;2022-12-18T01:57:46;102585.22;;;-8.70;97.81
11190;BME280;5651;50.926;4.718;2022-12-18T02:00:18;102586.84;;;-8.71;97.68
11190;BME280;5651;50.926;4.718;2022-12-18T02:02:47;102591.03;;;-8.71;97.63
11190;BME280;5651;50.926;4.718;2022-12-18T02:05:26;102595.47;;;-8.69;97.11
11190;BME280;5651;50.926;4.718;2022-12-18T02:08:08;102600.69;;;-8.67;97.12
11190;BME280;5651;50.926;4.718;2022-12-18T02:16:10;102593.44;;;-8.64;96.77
11190;BME280;5651;50.926;4.718;2022-12-18T02:18:41;102585.13;;;-8.63;96.84
11190;BME280;5651;50.926;4.718;2022-12-18T02:26:36;102581.56;;;-8.56;96.66
11190;BME280;5651;50.926;4.718;2022-12-18T02:29:16;102571.63;;;-8.55;96.88
11190;BME280;5651;50.926;4.718;2022-12-18T02:31:50;102564.03;;;-8.55;97.00
11190;BME280;5651;50.926;4.718;2022-12-18T02:34:22;102556.75;;;-8.52;96.71
11190;BME280;5651;50.926;4.718;2022-12-18T02:36:53;102542.50;;;-8.51;96.54
11190;BME280;5651;50.926;4.718;2022-12-18T02:39:23;102546.03;;;-8.49;96.01
11190;BME280;5651;50.926;4.718;2022-12-18T02:41:53;102546.97;;;-8.49;96.43
11190;BME280;5651;50.926;4.718;2022-12-18T02:44:19;102547.84;;;-8.48;96.00
11190;BME280;5651;50.926;4.718;2022-12-18T02:46:50;102552.00;;;-8.49;95.88
11190;BME280;5651;50.926;4.718;2022-12-18T02:52:24;102552.75;;;-8.50;96.74
11190;BME280;5651;50.926;4.718;2022-12-18T02:55:26;102549.16;;;-8.52;96.84
11190;BME280;5651;50.926;4.718;2022-12-18T02:57:56;102552.28;;;-8.54;96.83
11190;BME280;5651;50.926;4.718;2022-12-18T03:05:36;102556.28;;;-8.56;97.04
11190;BME280;5651;50.926;4.718;2022-12-18T03:08:24;102556.13;;;-8.58;97.04
11190;BME280;5651;50.926;4.718;2022-12-18T03:11:02;102547.50;;;-8.60;97.07
11190;BME280;5651;50.926;4.718;2022-12-18T03:13:37;102552.41;;;-8.62;96.78
11190;BME280;5651;50.926;4.718;2022-12-18T03:16:06;102547.06;;;-8.65;96.94
11190;BME280;5651;50.926;4.718;2022-12-18T03:18:40;102555.38;;;-8.66;97.69
11190;BME280;5651;50.926;4.718;2022-12-18T03:21:11;102544.06;;;-8.69;98.41
11190;BME280;5651;50.926;4.718;2022-12-18T03:23:49;102543.16;;;-8.70;98.96
11190;BME280;5651;50.926;4.718;2022-12-18T03:26:19;102540.50;;;-8.71;99.05
11190;BME280;5651;50.926;4.718;2022-12-18T03:28:53;102533.66;;;-8.72;99.28
11190;BME280;5651;50.926;4.718;2022-12-18T03:31:25;102520.13;;;-8.73;98.90
11190;BME280;5651;50.926;4.718;2022-12-18T03:33:56;102514.03;;;-8.75;98.48
11190;BME280;5651;50.926;4.718;2022-12-18T03:36:23;102512.25;;;-8.76;98.64
11190;BME280;5651;50.926;4.718;2022-12-18T03:38:51;102515.22;;;-8.80;98.43
11190;BME280;5651;50.926;4.718;2022-12-18T03:41:52;102524.13;;;-8.84;98.24
11190;BME280;5651;50.926;4.718;2022-12-18T03:44:28;102533.00;;;-8.87;98.33
11190;BME280;5651;50.926;4.718;2022-12-18T03:52:30;102532.81;;;-8.98;97.38
11190;BME280;5651;50.926;4.718;2022-12-18T03:54:59;102529.81;;;-9.02;97.60
11190;BME280;5651;50.926;4.718;2022-12-18T03:57:32;102528.59;;;-9.06;97.95
11190;BME280;5651;50.926;4.718;2022-12-18T04:00:12;102523.22;;;-9.09;97.67
11190;BME280;5651;50.926;4.718;2022-12-18T04:02:47;102528.88;;;-9.12;97.85
11190;BME280;5651;50.926;4.718;2022-12-18T04:05:15;102520.81;;;-9.16;97.81
11190;BME280;5651;50.926;4.718;2022-12-18T04:07:43;102521.41;;;-9.19;97.71
11190;BME280;5651;50.926;4.718;2022-12-18T04:10:11;102515.28;;;-9.21;97.98
11190;BME280;5651;50.926;4.718;2022-12-18T04:12:38;102506.50;;;-9.25;97.71
11190;BME280;5651;50.926;4.718;2022-12-18T04:15:07;102498.66;;;-9.28;97.89
11190;BME280;5651;50.926;4.718;2022-12-18T04:17:46;102499.38;;;-9.29;97.88
11190;BME280;5651;50.926;4.718;2022-12-18T04:20:16;102506.63;;;-9.32;97.63
11190;BME280;5651;50.926;4.718;2022-12-18T04:22:42;102515.69;;;-9.34;97.25
11190;BME280;5651;50.926;4.718;2022-12-18T04:25:13;102525.78;;;-9.34;97.34
11190;BME280;5651;50.926;4.718;2022-12-18T04:27:46;102521.13;;;-9.38;96.86
11190;BME280;5651;50.926;4.718;2022-12-18T04:30:12;102521.13;;;-9.38;97.09
11190;BME280;5651;50.926;4.718;2022-12-18T04:32:40;102519.34;;;-9.39;97.14
11190;BME280;5651;50.926;4.718;2022-12-18T04:35:05;102516.69;;;-9.41;97.38
11190;BME280;5651;50.926;4.718;2022-12-18T04:37:35;102516.81;;;-9.39;97.02
11190;BME280;5651;50.926;4.718;2022-12-18T04:40:03;102512.84;;;-9.37;97.46
11190;BME280;5651;50.926;4.718;2022-12-18T04:42:30;102513.00;;;-9.35;98.50
11190;BME280;5651;50.926;4.718;2022-12-18T04:44:58;102517.47;;;-9.33;98.46
11190;BME280;5651;50.926;4.718;2022-12-18T04:47:29;102507.38;;;-9.33;98.23
11190;BME280;5651;50.926;4.718;2022-12-18T04:49:55;102515.25;;;-9.30;98.92
11190;BME280;5651;50.926;4.718;2022-12-18T04:52:20;102526.41;;;-9.28;98.45
11190;BME280;5651;50.926;4.718;2022-12-18T04:54:46;102523.16;;;-9.27;98.13
11190;BME280;5651;50.926;4.718;2022-12-18T04:57:18;102524.03;;;-9.26;97.87
11190;BME280;5651;50.926;4.718;2022-12-18T04:59:44;102526.72;;;-9.25;98.02
11190;BME280;5651;50.926;4.718;2022-12-18T05:02:12;102536.97;;;-9.23;97.93
11190;BME280;5651;50.926;4.718;2022-12-18T05:04:38;102534.47;;;-9.23;98.04
11190;BME280;5651;50.926;4.718;2022-12-18T05:07:06;102539.31;;;-9.25;98.51
11190;BME280;5651;50.926;4.718;2022-12-18T05:09:39;102528.94;;;-9.28;98.71
11190;BME280;5651;50.926;4.718;2022-12-18T05:12:06;102526.41;;;-9.28;97.66
11190;BME280;5651;50.926;4.718;2022-12-18T05:14:32;102524.47;;;-9.30;98.17
11190;BME280;5651;50.926;4.718;2022-12-18T05:17:00;102518.94;;;-9.35;97.81
11190;BME280;5651;50.926;4.718;2022-12-18T05:19:26;102524.88;;;-9.34;97.97
11190;BME280;5651;50.926;4.718;2022-12-18T05:21:52;102514.47;;;-9.37;98.21
11190;BME280;5651;50.926;4.718;2022-12-18T05:24:20;102520.06;;;-9.40;98.09
11190;BME280;5651;50.926;4.718;2022-12-18T05:26:47;102520.84;;;-9.41;98.15
11190;BME280;5651;50.926;4.718;2022-12-18T05:29:15;102514.72;;;-9.43;97.93
11190;BME280;5651;50.926;4.718;2022-12-18T05:31:43;102512.94;;;-9.44;98.34
11190;BME280;5651;50.926;4.718;2022-12-18T05:34:13;102512.06;;;-9.45;98.43
11190;BME280;5651;50.926;4.718;2022-12-18T05:36:39;102515.31;;;-9.46;97.76
11190;BME280;5651;50.926;4.718;2022-12-18T05:39:08;102515.00;;;-9.49;97.95
11190;BME280;5651;50.926;4.718;2022-12-18T05:41:34;102512.47;;;-9.49;98.02
11190;BME280;5651;50.926;4.718;2022-12-18T05:44:02;102505.63;;;-9.50;98.11
11190;BME280;5651;50.926;4.718;2022-12-18T05:46:28;102517.94;;;-9.53;98.20
11190;BME280;5651;50.926;4.718;2022-12-18T05:48:59;102515.25;;;-9.55;98.15
11190;BME280;5651;50.926;4.718;2022-12-18T05:51:28;102513.28;;;-9.57;98.17
11190;BME280;5651;50.926;4.718;2022-12-18T05:53:56;102508.25;;;-9.57;98.02
11190;BME280;5651;50.926;4.718;2022-12-18T05:56:22;102508.97;;;-9.58;98.17
11190;BME280;5651;50.926;4.718;2022-12-18T05:58:51;102513.16;;;-9.59;98.52
11190;BME280;5651;50.926;4.718;2022-12-18T06:01:22;102508.84;;;-9.60;97.57
11190;BME280;5651;50.926;4.718;2022-12-18T06:03:48;102507.97;;;-9.60;98.10
11190;BME280;5651;50.926;4.718;2022-12-18T06:06:19;102515.53;;;-9.60;98.17
11190;BME280;5651;50.926;4.718;2022-12-18T06:08:46;102510.16;;;-9.63;98.16
11190;BME280;5651;50.926;4.718;2022-12-18T06:11:13;102512.53;;;-9.65;98.00
11190;BME280;5651;50.926;4.718;2022-12-18T06:13:39;102514.84;;;-9.66;98.51
11190;BME280;5651;50.926;4.718;2022-12-18T06:16:05;102523.19;;;-9.67;97.72
11190;BME280;5651;50.926;4.718;2022-12-18T06:18:32;102515.44;;;-9.69;98.08
11190;BME280;5651;50.926;4.718;2022-12-18T06:21:05;102501.78;;;-9.71;98.00
11190;BME280;5651;50.926;4.718;2022-12-18T06:23:38;102516.16;;;-9.70;97.79
11190;BME280;5651;50.926;4.718;2022-12-18T06:26:06;102514.41;;;-9.71;98.35
11190;BME280;5651;50.926;4.718;2022-12-18T06:28:32;102495.84;;;-9.72;98.01
11190;BME280;5651;50.926;4.718;2022-12-18T06:30:58;102495.25;;;-9.69;98.01
11190;BME280;5651;50.926;4.718;2022-12-18T06:33:28;102496.91;;;-9.69;97.64
11190;BME280;5651;50.926;4.718;2022-12-18T06:35:59;102485.16;;;-9.69;97.93
11190;BME280;5651;50.926;4.718;2022-12-18T06:38:28;102485.34;;;-9.67;97.65
11190;BME280;5651;50.926;4.718;2022-12-18T06:40:56;102488.75;;;-9.67;97.70
11190;BME280;5651;50.926;4.718;2022-12-18T06:43:22;102487.13;;;-9.66;97.50
11190;BME280;5651;50.926;4.718;2022-12-18T06:45:48;102500.94;;;-9.63;98.28
11190;BME280;5651;50.926;4.718;2022-12-18T06:48:20;102489.38;;;-9.61;98.11
11190;BME280;5651;50.926;4.718;2022-12-18T06:50:48;102481.56;;;-9.55;98.08
11190;BME280;5651;50.926;4.718;2022-12-18T06:53:16;102474.31;;;-9.52;98.01
11190;BME280;5651;50.926;4.718;2022-12-18T06:55:41;102471.38;;;-9.48;98.24
11190;BME280;5651;50.926;4.718;2022-12-18T06:58:09;102472.56;;;-9.44;98.16
11190;BME280;5651;50.926;4.718;2022-12-18T07:00:40;102480.63;;;-9.40;97.76
11190;BME280;5651;50.926;4.718;2022-12-18T07:03:06;102481.81;;;-9.36;97.99
11190;BME280;5651;50.926;4.718;2022-12-18T07:05:32;102477.97;;;-9.32;97.47
11190;BME280;5651;50.926;4.718;2022-12-18T07:08:00;102473.41;;;-9.28;97.65
11190;BME280;5651;50.926;4.718;2022-12-18T07:10:28;102461.09;;;-9.25;98.08
11190;BME280;5651;50.926;4.718;2022-12-18T07:12:54;102455.47;;;-9.22;98.04
11190;BME280;5651;50.926;4.718;2022-12-18T07:15:20;102443.59;;;-9.23;97.78
11190;BME280;5651;50.926;4.718;2022-12-18T07:17:49;102436.91;;;-9.23;98.04
11190;BME280;5651;50.926;4.718;2022-12-18T07:20:15;102429.47;;;-9.21;97.82
11190;BME280;5651;50.926;4.718;2022-12-18T07:22:43;102433.19;;;-9.17;97.69
11190;BME280;5651;50.926;4.718;2022-12-18T07:25:09;102428.47;;;-9.14;98.05
11190;BME280;5651;50.926;4.718;2022-12-18T07:27:35;102428.78;;;-9.11;97.82
11190;BME280;5651;50.926;4.718;2022-12-18T07:30:03;102424.03;;;-9.08;98.11
11190;BME280;5651;50.926;4.718;2022-12-18T07:32:32;102420.03;;;-9.06;98.19
11190;BME280;5651;50.926;4.718;2022-12-18T07:34:58;102427.94;;;-9.03;97.57
11190;BME280;5651;50.926;4.718;2022-12-18T07:37:24;102431.19;;;-9.04;97.73
11190;BME280;5651;50.926;4.718;2022-12-18T07:39:50;102428.06;;;-9.01;97.79
11190;BME280;5651;50.926;4.718;2022-12-18T07:42:16;102429.13;;;-8.99;97.55
11190;BME280;5651;50.926;4.718;2022-12-18T07:45:00;102425.09;;;-8.97;97.31
11190;BME280;5651;50.926;4.718;2022-12-18T07:47:34;102420.22;;;-8.96;97.25
11190;BME280;5651;50.926;4.718;2022-12-18T07:50:06;102420.38;;;-8.94;97.40
11190;BME280;5651;50.926;4.718;2022-12-18T07:52:32;102412.78;;;-8.94;97.66
11190;BME280;5651;50.926;4.718;2022-12-18T07:55:02;102411.00;;;-8.95;97.91
11190;BME280;5651;50.926;4.718;2022-12-18T07:57:27;102408.63;;;-8.94;97.45
11190;BME280;5651;50.926;4.718;2022-12-18T07:59:53;102389.47;;;-8.92;97.54
11190;BME280;5651;50.926;4.718;2022-12-18T08:02:21;102398.25;;;-8.88;97.36
11190;BME280;5651;50.926;4.718;2022-12-18T08:04:47;102383.69;;;-8.82;97.62
11190;BME280;5651;50.926;4.718;2022-12-18T08:07:14;102381.47;;;-8.70;97.81
11190;BME280;5651;50.926;4.718;2022-12-18T08:09:40;102388.19;;;-8.62;97.89
11190;BME280;5651;50.926;4.718;2022-12-18T08:12:06;102385.22;;;-8.49;98.43
11190;BME280;5651;50.926;4.718;2022-12-18T08:14:32;102396.06;;;-8.32;99.63
11190;BME280;5651;50.926;4.718;2022-12-18T08:16:58;102400.19;;;-8.15;100.00
11190;BME280;5651;50.926;4.718;2022-12-18T08:19:24;102409.28;;;-8.08;100.00
11190;BME280;5651;50.926;4.718;2022-12-18T08:21:50;102410.44;;;-7.96;100.00
11190;BME280;5651;50.926;4.718;2022-12-18T08:24:17;102399.09;;;-7.73;100.00
11190;BME280;5651;50.926;4.718;2022-12-18T08:26:43;102386.88;;;-7.69;100.00
11190;BME280;5651;50.926;4.718;2022-12-18T08:29:09;102378.81;;;-7.56;100.00
11190;BME280;5651;50.926;4.718;2022-12-18T08:31:37;102377.53;;;-7.42;100.00
11190;BME280;5651;50.926;4.718;2022-12-18T08:34:04;102381.50;;;-7.26;100.00
11190;BME280;5651;50.926;4.718;2022-12-18T08:36:29;102366.13;;;-7.19;100.00
11190;BME280;5651;50.926;4.718;2022-12-18T08:38:57;102360.84;;;-7.12;100.00
11190;BME280;5651;50.926;4.718;2022-12-18T08:41:23;102360.66;;;-7.05;100.00
11190;BME280;5651;50.926;4.718;2022-12-18T08:43:49;102356.56;;;-6.94;100.00
11190;BME280;5651;50.926;4.718;2022-12-18T08:46:38;102359.63;;;-6.79;100.00
11190;BME280;5651;50.926;4.718;2022-12-18T08:49:08;102356.38;;;-6.68;100.00
11190;BME280;5651;50.926;4.718;2022-12-18T08:51:36;102354.56;;;-6.60;100.00
11190;BME280;5651;50.926;4.718;2022-12-18T08:54:03;102356.69;;;-6.45;100.00
11190;BME280;5651;50.926;4.718;2022-12-18T08:56:29;102351.53;;;-6.37;100.00
11190;BME280;5651;50.926;4.718;2022-12-18T08:58:56;102347.75;;;-6.31;100.00
11190;BME280;5651;50.926;4.718;2022-12-18T09:01:24;102350.22;;;-6.23;100.00
11190;BME280;5651;50.926;4.718;2022-12-18T09:03:50;102349.91;;;-6.07;100.00
11190;BME280;5651;50.926;4.718;2022-12-18T09:06:18;102349.66;;;-5.99;100.00
11190;BME280;5651;50.926;4.718;2022-12-18T09:08:44;102349.81;;;-5.88;100.00
11190;BME280;5651;50.926;4.718;2022-12-18T09:11:22;102343.13;;;-5.77;100.00
11190;BME280;5651;50.926;4.718;2022-12-18T09:13:48;102338.97;;;-5.66;100.00
11190;BME280;5651;50.926;4.718;2022-12-18T09:16:16;102345.84;;;-5.54;100.00
11190;BME280;5651;50.926;4.718;2022-12-18T09:18:43;102334.19;;;-5.42;100.00
11190;BME280;5651;50.926;4.718;2022-12-18T09:21:18;102331.94;;;-5.29;100.00
11190;BME280;5651;50.926;4.718;2022-12-18T09:23:49;102322.03;;;-5.15;100.00
11190;BME280;5651;50.926;4.718;2022-12-18T09:26:15;102323.94;;;-5.02;100.00
11190;BME280;5651;50.926;4.718;2022-12-18T09:28:42;102327.38;;;-4.91;100.00
11190;BME280;5651;50.926;4.718;2022-12-18T09:31:16;102325.72;;;-4.81;100.00
11190;BME280;5651;50.926;4.718;2022-12-18T09:33:42;102337.75;;;-4.68;100.00
11190;BME280;5651;50.926;4.718;2022-12-18T09:36:10;102340.53;;;-4.54;100.00
11190;BME280;5651;50.926;4.718;2022-12-18T09:38:36;102326.91;;;-4.44;100.00
11190;BME280;5651;50.926;4.718;2022-12-18T09:43:57;102327.09;;;-4.21;100.00
11190;BME280;5651;50.926;4.718;2022-12-18T09:46:30;102314.47;;;-4.09;100.00
11190;BME280;5651;50.926;4.718;2022-12-18T09:49:00;102317.97;;;-3.96;100.00
11190;BME280;5651;50.926;4.718;2022-12-18T09:51:37;102321.09;;;-3.89;100.00
11190;BME280;5651;50.926;4.718;2022-12-18T09:54:12;102315.44;;;-3.74;100.00
11190;BME280;5651;50.926;4.718;2022-12-18T09:56:42;102304.16;;;-3.66;100.00
11190;BME280;5651;50.926;4.718;2022-12-18T09:59:37;102305.78;;;-3.56;100.00
11190;BME280;5651;50.926;4.718;2022-12-18T10:02:14;102311.91;;;-3.42;100.00
11190;BME280;5651;50.926;4.718;2022-12-18T10:04:47;102310.81;;;-3.34;100.00
11190;BME280;5651;50.926;4.718;2022-12-18T10:07:29;102308.09;;;-3.25;100.00
11190;BME280;5651;50.926;4.718;2022-12-18T10:10:26;102312.69;;;-3.09;100.00
11190;BME280;5651;50.926;4.718;2022-12-18T10:13:06;102307.94;;;-3.05;100.00
11190;BME280;5651;50.926;4.718;2022-12-18T10:16:03;102302.72;;;-2.94;100.00
11190;BME280;5651;50.926;4.718;2022-12-18T10:27:22;102274.69;;;-2.59;100.00
11190;BME280;5651;50.926;4.718;2022-12-18T10:29:57;102265.59;;;-2.55;100.00
11190;BME280;5651;50.926;4.718;2022-12-18T10:32:28;102254.72;;;-2.52;100.00
11190;BME280;5651;50.926;4.718;2022-12-18T10:34:57;102249.41;;;-2.44;100.00
11190;BME280;5651;50.926;4.718;2022-12-18T10:37:28;102240.41;;;-2.39;100.00
11190;BME280;5651;50.926;4.718;2022-12-18T10:42:35;102236.81;;;-2.29;100.00
11190;BME280;5651;50.926;4.718;2022-12-18T10:45:21;102230.69;;;-2.19;100.00
11190;BME280;5651;50.926;4.718;2022-12-18T10:47:49;102233.56;;;-2.14;100.00
11190;BME280;5651;50.926;4.718;2022-12-18T10:50:36;102234.03;;;-2.08;100.00
11190;BME280;5651;50.926;4.718;2022-12-18T10:53:05;102228.84;;;-1.96;100.00
11190;BME280;5651;50.926;4.718;2022-12-18T10:55:37;102217.16;;;-1.93;100.00
11190;BME280;5651;50.926;4.718;2022-12-18T10:58:36;102221.94;;;-1.85;100.00
11190;BME280;5651;50.926;4.718;2022-12-18T11:01:14;102220.00;;;-1.76;100.00
11190;BME280;5651;50.926;4.718;2022-12-18T11:06:21;102217.50;;;-1.63;100.00
11190;BME280;5651;50.926;4.718;2022-12-18T11:09:04;102211.34;;;-1.53;100.00
11190;BME280;5651;50.926;4.718;2022-12-18T11:11:31;102214.53;;;-1.44;100.00
11190;BME280;5651;50.926;4.718;2022-12-18T11:14:05;102215.41;;;-1.43;100.00
11190;BME280;5651;50.926;4.718;2022-12-18T11:16:43;102213.47;;;-1.34;100.00
11190;BME280;5651;50.926;4.718;2022-12-18T11:21:47;102218.81;;;-1.17;100.00
11190;BME280;5651;50.926;4.718;2022-12-18T11:24:20;102221.75;;;-1.11;100.00
11190;BME280;5651;50.926;4.718;2022-12-18T11:26:56;102223.03;;;-1.04;100.00
11190;BME280;5651;50.926;4.718;2022-12-18T11:29:30;102224.41;;;-0.96;100.00
11190;BME280;5651;50.926;4.718;2022-12-18T11:34:53;102213.69;;;-0.90;100.00
11190;BME280;5651;50.926;4.718;2022-12-18T11:37:25;102214.56;;;-0.90;100.00
11190;BME280;5651;50.926;4.718;2022-12-18T11:40:20;102210.53;;;-1.00;100.00
11190;BME280;5651;50.926;4.718;2022-12-18T11:43:02;102205.63;;;-0.97;100.00
11190;BME280;5651;50.926;4.718;2022-12-18T11:45:35;102207.59;;;-0.92;100.00
11190;BME280;5651;50.926;4.718;2022-12-18T11:48:17;102201.59;;;-0.93;100.00
11190;BME280;5651;50.926;4.718;2022-12-18T11:50:55;102200.03;;;-0.91;100.00
11190;BME280;5651;50.926;4.718;2022-12-18T11:53:27;102206.41;;;-0.84;100.00
11190;BME280;5651;50.926;4.718;2022-12-18T12:01:29;102197.94;;;-0.83;100.00
11190;BME280;5651;50.926;4.718;2022-12-18T12:04:58;102195.97;;;-0.74;100.00
11190;BME280;5651;50.926;4.718;2022-12-18T12:10:13;102187.78;;;-0.55;100.00
11190;BME280;5651;50.926;4.718;2022-12-18T12:12:59;102182.34;;;-0.46;100.00
11190;BME280;5651;50.926;4.718;2022-12-18T12:26:06;102154.13;;;-0.19;100.00
11190;BME280;5651;50.926;4.718;2022-12-18T12:34:30;102146.38;;;-0.06;100.00
11190;BME280;5651;50.926;4.718;2022-12-18T12:39:51;102152.72;;;0.01;100.00
11190;BME280;5651;50.926;4.718;2022-12-18T12:42:29;102143.53;;;0.05;100.00
11190;BME280;5651;50.926;4.718;2022-12-18T12:45:26;102140.38;;;0.09;100.00
11190;BME280;5651;50.926;4.718;2022-12-18T12:47:54;102138.09;;;0.13;100.00
11190;BME280;5651;50.926;4.718;2022-12-18T12:50:24;102136.69;;;0.19;100.00
11190;BME280;5651;50.926;4.718;2022-12-18T12:52:54;102139.53;;;0.23;100.00
11190;BME280;5651;50.926;4.718;2022-12-18T12:55:26;102132.97;;;0.28;100.00
11190;BME280;5651;50.926;4.718;2022-12-18T13:06:37;102117.69;;;0.45;100.00
11190;BME280;5651;50.926;4.718;2022-12-18T13:09:07;102128.41;;;0.53;100.00
11190;BME280;5651;50.926;4.718;2022-12-18T13:11:39;102127.69;;;0.55;100.00
11190;BME280;5651;50.926;4.718;2022-12-18T13:14:28;102117.16;;;0.51;100.00
11190;BME280;5651;50.926;4.718;2022-12-18T13:17:35;102116.66;;;0.56;100.00
11190;BME280;5651;50.926;4.718;2022-12-18T13:20:11;102118.56;;;0.60;100.00
11190;BME280;5651;50.926;4.718;2022-12-18T13:22:42;102118.22;;;0.54;100.00
11190;BME280;5651;50.926;4.718;2022-12-18T13:25:36;102116.88;;;0.61;100.00
11190;BME280;5651;50.926;4.718;2022-12-18T13:34:23;102103.44;;;0.65;100.00
11190;BME280;5651;50.926;4.718;2022-12-18T13:36:53;102106.09;;;0.67;100.00
11190;BME280;5651;50.926;4.718;2022-12-18T13:44:36;102080.50;;;0.83;100.00
11190;BME280;5651;50.926;4.718;2022-12-18T13:47:32;102077.75;;;0.80;100.00
11190;BME280;5651;50.926;4.718;2022-12-18T13:50:04;102082.53;;;0.74;99.37
11190;BME280;5651;50.926;4.718;2022-12-18T13:52:36;102095.22;;;0.71;99.56
11190;BME280;5651;50.926;4.718;2022-12-18T13:55:14;102095.81;;;0.67;98.76
11190;BME280;5651;50.926;4.718;2022-12-18T13:57:40;102086.03;;;0.59;97.46
11190;BME280;5651;50.926;4.718;2022-12-18T14:02:46;102087.78;;;0.45;96.32
11190;BME280;5651;50.926;4.718;2022-12-18T14:05:25;102085.59;;;0.52;96.73
11190;BME280;5651;50.926;4.718;2022-12-18T14:07:52;102069.66;;;0.57;97.61
11190;BME280;5651;50.926;4.718;2022-12-18T14:10:23;102071.44;;;0.58;97.88
11190;BME280;5651;50.926;4.718;2022-12-18T14:12:54;102071.63;;;0.61;98.26
11190;BME280;5651;50.926;4.718;2022-12-18T14:15:34;102089.31;;;0.57;96.68
11190;BME280;5651;50.926;4.718;2022-12-18T14:20:50;102113.38;;;0.59;93.45
11190;BME280;5651;50.926;4.718;2022-12-18T14:23:35;102108.75;;;0.53;94.46
11190;BME280;5651;50.926;4.718;2022-12-18T14:26:23;102113.03;;;0.53;95.43
11190;BME280;5651;50.926;4.718;2022-12-18T14:28:52;102114.41;;;0.62;95.27
11190;BME280;5651;50.926;4.718;2022-12-18T14:31:30;102105.13;;;0.50;95.18
11190;BME280;5651;50.926;4.718;2022-12-18T14:33:57;102113.19;;;0.56;95.30
11190;BME280;5651;50.926;4.718;2022-12-18T14:36:28;102103.28;;;0.47;96.13
11190;BME280;5651;50.926;4.718;2022-12-18T14:38:58;102094.81;;;0.48;96.22
11190;BME280;5651;50.926;4.718;2022-12-18T14:41:29;102093.03;;;0.47;96.06
11190;BME280;5651;50.926;4.718;2022-12-18T14:43:55;102085.16;;;0.44;96.26
11190;BME280;5651;50.926;4.718;2022-12-18T14:46:35;102076.59;;;0.43;96.64
11190;BME280;5651;50.926;4.718;2022-12-18T14:49:19;102079.03;;;0.42;96.45
11190;BME280;5651;50.926;4.718;2022-12-18T14:51:52;102075.53;;;0.40;96.75
11190;BME280;5651;50.926;4.718;2022-12-18T14:54:22;102077.13;;;0.38;96.53
11190;BME280;5651;50.926;4.718;2022-12-18T14:57:06;102073.03;;;0.41;96.62
11190;BME280;5651;50.926;4.718;2022-12-18T14:59:41;102073.13;;;0.43;97.31
11190;BME280;5651;50.926;4.718;2022-12-18T15:04:44;102071.38;;;0.27;95.67
11190;BME280;5651;50.926;4.718;2022-12-18T15:07:19;102066.84;;;0.23;96.08
11190;BME280;5651;50.926;4.718;2022-12-18T15:10:12;102056.06;;;0.28;95.35